sensor_id;sensor_type;location;lat;lon;timestamp;P1;durP1;ratioP1;P2;durP2;ratioP2
9860;SDS011;4969;52.304;4.968;2022-12-18T00:01:30;62.60;;;44.17;;
9860;SDS011;4969;52.304;4.968;2022-12-18T00:03:58;60.10;;;42.53;;
9860;SDS011;4969;52.304;4.968;2022-12-18T00:06:26;61.47;;;42.20;;
9860;SDS011;4969;52.304;4.968;2022-12-18T00:08:55;63.53;;;45.27;;
9860;SDS011;4969;52.304;4.968;2022-12-18T00:11:23;65.53;;;46.70;;
9860;SDS011;4969;52.304;4.968;2022-12-18T00:13:53;57.90;;;41.53;;
9860;SDS011;4969;52.304;4.968;2022-12-18T00:16:21;72.87;;;51.67;;
9860;SDS011;4969;52.304;4.968;2022-12-18T00:18:52;66.40;;;48.00;;
9860;SDS011;4969;52.304;4.968;2022-12-18T00:21:20;62.70;;;44.03;;
9860;SDS011;4969;52.304;4.968;2022-12-18T00:23:47;63.07;;;44.53;;
9860;SDS011;4969;52.304;4.968;2022-12-18T00:26:17;73.83;;;54.80;;
9860;SDS011;4969;52.304;4.968;2022-12-18T00:28:45;70.13;;;49.83;;
9860;SDS011;4969;52.304;4.968;2022-12-18T00:31:13;81.00;;;58.23;;
9860;SDS011;4969;52.304;4.968;2022-12-18T00:33:41;88.30;;;60.60;;
9860;SDS011;4969;52.304;4.968;2022-12-18T00:36:10;89.03;;;66.03;;
9860;SDS011;4969;52.304;4.968;2022-12-18T00:38:38;115.73;;;80.07;;
9860;SDS011;4969;52.304;4.968;2022-12-18T00:41:05;105.30;;;78.00;;
9860;SDS011;4969;52.304;4.968;2022-12-18T00:43:33;100.80;;;72.50;;
9860;SDS011;4969;52.304;4.968;2022-12-18T00:45:59;96.10;;;71.43;;
9860;SDS011;4969;52.304;4.968;2022-12-18T00:48:25;112.40;;;82.57;;
9860;SDS011;4969;52.304;4.968;2022-12-18T00:50:52;74.13;;;55.57;;
9860;SDS011;4969;52.304;4.968;2022-12-18T00:53:20;71.83;;;53.07;;
9860;SDS011;4969;52.304;4.968;2022-12-18T00:55:47;109.57;;;82.20;;
9860;SDS011;4969;52.304;4.968;2022-12-18T00:58:14;124.63;;;91.17;;
9860;SDS011;4969;52.304;4.968;2022-12-18T01:00:42;112.53;;;82.33;;
9860;SDS011;4969;52.304;4.968;2022-12-18T01:03:10;106.37;;;78.13;;
9860;SDS011;4969;52.304;4.968;2022-12-18T01:05:39;94.50;;;68.87;;
9860;SDS011;4969;52.304;4.968;2022-12-18T01:08:07;117.13;;;84.33;;
9860;SDS011;4969;52.304;4.968;2022-12-18T01:10:35;104.93;;;76.10;;
9860;SDS011;4969;52.304;4.968;2022-12-18T01:13:02;103.43;;;74.43;;
9860;SDS011;4969;52.304;4.968;2022-12-18T01:15:28;95.43;;;69.50;;
9860;SDS011;4969;52.304;4.968;2022-12-18T01:17:55;113.07;;;84.33;;
9860;SDS011;4969;52.304;4.968;2022-12-18T01:20:21;107.00;;;76.00;;
9860;SDS011;4969;52.304;4.968;2022-12-18T01:22:48;84.43;;;60.83;;
9860;SDS011;4969;52.304;4.968;2022-12-18T01:25:14;94.37;;;66.83;;
9860;SDS011;4969;52.304;4.968;2022-12-18T01:27:42;92.63;;;64.80;;
9860;SDS011;4969;52.304;4.968;2022-12-18T01:30:09;87.43;;;62.53;;
9860;SDS011;4969;52.304;4.968;2022-12-18T01:32:36;88.97;;;63.73;;
9860;SDS011;4969;52.304;4.968;2022-12-18T01:35:03;90.37;;;66.33;;
9860;SDS011;4969;52.304;4.968;2022-12-18T01:37:31;88.47;;;63.20;;
9860;SDS011;4969;52.304;4.968;2022-12-18T01:39:58;72.63;;;53.30;;
9860;SDS011;4969;52.304;4.968;2022-12-18T01:42:24;86.20;;;62.67;;
9860;SDS011;4969;52.304;4.968;2022-12-18T01:45:00;83.40;;;60.47;;
9860;SDS011;4969;52.304;4.968;2022-12-18T01:47:32;80.83;;;58.03;;
9860;SDS011;4969;52.304;4.968;2022-12-18T01:50:03;74.60;;;54.67;;
9860;SDS011;4969;52.304;4.968;2022-12-18T01:52:33;70.10;;;51.00;;
9860;SDS011;4969;52.304;4.968;2022-12-18T01:55:00;75.27;;;56.23;;
9860;SDS011;4969;52.304;4.968;2022-12-18T01:57:29;70.53;;;52.77;;
9860;SDS011;4969;52.304;4.968;2022-12-18T01:59:57;66.97;;;49.50;;
9860;SDS011;4969;52.304;4.968;2022-12-18T02:02:28;63.57;;;47.70;;
9860;SDS011;4969;52.304;4.968;2022-12-18T02:04:55;66.23;;;49.80;;
9860;SDS011;4969;52.304;4.968;2022-12-18T02:07:24;63.43;;;47.50;;
9860;SDS011;4969;52.304;4.968;2022-12-18T02:09:57;60.20;;;45.07;;
9860;SDS011;4969;52.304;4.968;2022-12-18T02:12:30;57.60;;;45.80;;
9860;SDS011;4969;52.304;4.968;2022-12-18T02:15:12;59.93;;;44.20;;
9860;SDS011;4969;52.304;4.968;2022-12-18T02:17:43;52.90;;;39.83;;
9860;SDS011;4969;52.304;4.968;2022-12-18T02:20:15;58.77;;;44.33;;
9860;SDS011;4969;52.304;4.968;2022-12-18T02:22:49;59.87;;;42.87;;
9860;SDS011;4969;52.304;4.968;2022-12-18T02:25:30;56.50;;;41.07;;
9860;SDS011;4969;52.304;4.968;2022-12-18T02:28:09;63.00;;;40.27;;
9860;SDS011;4969;52.304;4.968;2022-12-18T02:30:38;60.73;;;41.07;;
9860;SDS011;4969;52.304;4.968;2022-12-18T02:33:07;55.37;;;39.57;;
9860;SDS011;4969;52.304;4.968;2022-12-18T02:35:35;43.20;;;33.77;;
9860;SDS011;4969;52.304;4.968;2022-12-18T02:38:03;54.43;;;40.77;;
9860;SDS011;4969;52.304;4.968;2022-12-18T02:40:30;42.47;;;33.03;;
9860;SDS011;4969;52.304;4.968;2022-12-18T02:43:02;49.87;;;36.53;;
9860;SDS011;4969;52.304;4.968;2022-12-18T02:45:30;48.57;;;36.43;;
9860;SDS011;4969;52.304;4.968;2022-12-18T02:47:57;51.87;;;39.07;;
9860;SDS011;4969;52.304;4.968;2022-12-18T02:50:26;49.80;;;34.87;;
9860;SDS011;4969;52.304;4.968;2022-12-18T02:53:01;53.10;;;34.27;;
9860;SDS011;4969;52.304;4.968;2022-12-18T02:55:39;45.93;;;33.40;;
9860;SDS011;4969;52.304;4.968;2022-12-18T02:58:16;62.63;;;29.93;;
9860;SDS011;4969;52.304;4.968;2022-12-18T03:00:51;44.80;;;32.87;;
9860;SDS011;4969;52.304;4.968;2022-12-18T03:03:24;43.73;;;31.47;;
9860;SDS011;4969;52.304;4.968;2022-12-18T03:05:55;39.67;;;31.07;;
9860;SDS011;4969;52.304;4.968;2022-12-18T03:08:25;42.10;;;32.93;;
9860;SDS011;4969;52.304;4.968;2022-12-18T03:10:56;41.50;;;32.57;;
9860;SDS011;4969;52.304;4.968;2022-12-18T03:13:27;41.13;;;31.27;;
9860;SDS011;4969;52.304;4.968;2022-12-18T03:15:59;48.43;;;32.20;;
9860;SDS011;4969;52.304;4.968;2022-12-18T03:18:29;38.87;;;29.83;;
9860;SDS011;4969;52.304;4.968;2022-12-18T03:20:59;40.87;;;30.13;;
9860;SDS011;4969;52.304;4.968;2022-12-18T03:23:29;40.20;;;29.67;;
9860;SDS011;4969;52.304;4.968;2022-12-18T03:26:02;38.53;;;29.13;;
9860;SDS011;4969;52.304;4.968;2022-12-18T03:28:32;47.23;;;29.93;;
9860;SDS011;4969;52.304;4.968;2022-12-18T03:31:05;37.17;;;28.30;;
9860;SDS011;4969;52.304;4.968;2022-12-18T03:33:37;35.30;;;28.27;;
9860;SDS011;4969;52.304;4.968;2022-12-18T03:36:08;38.33;;;28.27;;
9860;SDS011;4969;52.304;4.968;2022-12-18T03:38:34;36.77;;;28.60;;
9860;SDS011;4969;52.304;4.968;2022-12-18T03:41:03;37.30;;;29.17;;
9860;SDS011;4969;52.304;4.968;2022-12-18T03:43:40;35.90;;;28.10;;
9860;SDS011;4969;52.304;4.968;2022-12-18T03:46:16;37.47;;;27.80;;
9860;SDS011;4969;52.304;4.968;2022-12-18T03:48:51;35.70;;;27.37;;
9860;SDS011;4969;52.304;4.968;2022-12-18T03:51:24;37.03;;;28.60;;
9860;SDS011;4969;52.304;4.968;2022-12-18T03:53:55;37.20;;;27.53;;
9860;SDS011;4969;52.304;4.968;2022-12-18T03:56:25;36.30;;;26.97;;
9860;SDS011;4969;52.304;4.968;2022-12-18T03:58:55;36.47;;;27.47;;
9860;SDS011;4969;52.304;4.968;2022-12-18T04:01:25;35.00;;;26.30;;
9860;SDS011;4969;52.304;4.968;2022-12-18T04:03:58;34.50;;;27.27;;
9860;SDS011;4969;52.304;4.968;2022-12-18T04:06:26;33.07;;;26.57;;
9860;SDS011;4969;52.304;4.968;2022-12-18T04:08:56;33.83;;;26.83;;
9860;SDS011;4969;52.304;4.968;2022-12-18T04:11:24;33.63;;;25.27;;
9860;SDS011;4969;52.304;4.968;2022-12-18T04:13:50;33.97;;;26.30;;
9860;SDS011;4969;52.304;4.968;2022-12-18T04:16:22;33.70;;;25.80;;
9860;SDS011;4969;52.304;4.968;2022-12-18T04:18:50;31.73;;;25.73;;
9860;SDS011;4969;52.304;4.968;2022-12-18T04:21:16;30.93;;;24.50;;
9860;SDS011;4969;52.304;4.968;2022-12-18T04:23:43;32.43;;;25.27;;
9860;SDS011;4969;52.304;4.968;2022-12-18T04:26:09;30.43;;;24.53;;
9860;SDS011;4969;52.304;4.968;2022-12-18T04:28:36;28.33;;;23.77;;
9860;SDS011;4969;52.304;4.968;2022-12-18T04:31:03;32.23;;;24.63;;
9860;SDS011;4969;52.304;4.968;2022-12-18T04:33:30;28.13;;;22.80;;
9860;SDS011;4969;52.304;4.968;2022-12-18T04:35:58;29.93;;;23.37;;
9860;SDS011;4969;52.304;4.968;2022-12-18T04:38:24;30.47;;;24.17;;
9860;SDS011;4969;52.304;4.968;2022-12-18T04:40:51;29.60;;;23.53;;
9860;SDS011;4969;52.304;4.968;2022-12-18T04:43:17;28.77;;;22.70;;
9860;SDS011;4969;52.304;4.968;2022-12-18T04:45:44;28.33;;;23.37;;
9860;SDS011;4969;52.304;4.968;2022-12-18T04:48:11;28.67;;;23.73;;
9860;SDS011;4969;52.304;4.968;2022-12-18T04:50:37;31.60;;;23.40;;
9860;SDS011;4969;52.304;4.968;2022-12-18T04:53:05;28.37;;;23.00;;
9860;SDS011;4969;52.304;4.968;2022-12-18T04:55:32;28.63;;;23.17;;
9860;SDS011;4969;52.304;4.968;2022-12-18T04:57:58;28.63;;;22.50;;
9860;SDS011;4969;52.304;4.968;2022-12-18T05:00:25;27.97;;;22.30;;
9860;SDS011;4969;52.304;4.968;2022-12-18T05:02:51;27.70;;;22.47;;
9860;SDS011;4969;52.304;4.968;2022-12-18T05:05:18;30.33;;;23.97;;
9860;SDS011;4969;52.304;4.968;2022-12-18T05:07:45;28.10;;;23.07;;
9860;SDS011;4969;52.304;4.968;2022-12-18T05:10:13;28.67;;;22.83;;
9860;SDS011;4969;52.304;4.968;2022-12-18T05:12:39;28.57;;;22.40;;
9860;SDS011;4969;52.304;4.968;2022-12-18T05:15:20;28.23;;;22.67;;
9860;SDS011;4969;52.304;4.968;2022-12-18T05:17:46;28.90;;;22.63;;
9860;SDS011;4969;52.304;4.968;2022-12-18T05:20:13;27.47;;;22.30;;
9860;SDS011;4969;52.304;4.968;2022-12-18T05:22:40;30.23;;;22.67;;
9860;SDS011;4969;52.304;4.968;2022-12-18T05:25:06;28.83;;;22.77;;
9860;SDS011;4969;52.304;4.968;2022-12-18T05:27:35;28.40;;;21.83;;
9860;SDS011;4969;52.304;4.968;2022-12-18T05:30:02;26.77;;;22.17;;
9860;SDS011;4969;52.304;4.968;2022-12-18T05:32:29;26.60;;;21.37;;
9860;SDS011;4969;52.304;4.968;2022-12-18T05:34:55;26.83;;;22.20;;
9860;SDS011;4969;52.304;4.968;2022-12-18T05:37:22;26.60;;;21.90;;
9860;SDS011;4969;52.304;4.968;2022-12-18T05:39:49;27.70;;;23.47;;
9860;SDS011;4969;52.304;4.968;2022-12-18T05:42:15;29.97;;;24.40;;
9860;SDS011;4969;52.304;4.968;2022-12-18T05:44:44;33.53;;;24.70;;
9860;SDS011;4969;52.304;4.968;2022-12-18T05:47:10;32.97;;;25.23;;
9860;SDS011;4969;52.304;4.968;2022-12-18T05:49:37;32.23;;;24.70;;
9860;SDS011;4969;52.304;4.968;2022-12-18T05:52:04;32.90;;;25.63;;
9860;SDS011;4969;52.304;4.968;2022-12-18T05:54:30;31.47;;;24.27;;
9860;SDS011;4969;52.304;4.968;2022-12-18T05:56:57;33.70;;;25.37;;
9860;SDS011;4969;52.304;4.968;2022-12-18T05:59:23;32.53;;;25.33;;
9860;SDS011;4969;52.304;4.968;2022-12-18T06:01:51;29.83;;;23.67;;
9860;SDS011;4969;52.304;4.968;2022-12-18T06:04:18;30.47;;;22.60;;
9860;SDS011;4969;52.304;4.968;2022-12-18T06:06:45;26.40;;;21.23;;
9860;SDS011;4969;52.304;4.968;2022-12-18T06:09:11;25.33;;;21.07;;
9860;SDS011;4969;52.304;4.968;2022-12-18T06:11:38;27.27;;;20.83;;
9860;SDS011;4969;52.304;4.968;2022-12-18T06:14:05;25.50;;;20.37;;
9860;SDS011;4969;52.304;4.968;2022-12-18T06:16:32;26.37;;;21.13;;
9860;SDS011;4969;52.304;4.968;2022-12-18T06:19:01;23.20;;;20.07;;
9860;SDS011;4969;52.304;4.968;2022-12-18T06:21:29;24.17;;;20.37;;
9860;SDS011;4969;52.304;4.968;2022-12-18T06:23:57;24.40;;;19.40;;
9860;SDS011;4969;52.304;4.968;2022-12-18T06:26:24;23.50;;;19.17;;
9860;SDS011;4969;52.304;4.968;2022-12-18T06:28:50;25.33;;;20.03;;
9860;SDS011;4969;52.304;4.968;2022-12-18T06:31:17;24.80;;;19.90;;
9860;SDS011;4969;52.304;4.968;2022-12-18T06:33:43;24.87;;;19.27;;
9860;SDS011;4969;52.304;4.968;2022-12-18T06:36:12;21.57;;;18.20;;
9860;SDS011;4969;52.304;4.968;2022-12-18T06:38:40;21.60;;;17.50;;
9860;SDS011;4969;52.304;4.968;2022-12-18T06:41:07;20.87;;;17.03;;
9860;SDS011;4969;52.304;4.968;2022-12-18T06:43:35;17.17;;;14.93;;
9860;SDS011;4969;52.304;4.968;2022-12-18T06:46:02;18.87;;;15.93;;
9860;SDS011;4969;52.304;4.968;2022-12-18T06:48:29;22.73;;;16.73;;
9860;SDS011;4969;52.304;4.968;2022-12-18T06:50:56;18.37;;;16.23;;
9860;SDS011;4969;52.304;4.968;2022-12-18T06:53:24;18.23;;;14.80;;
9860;SDS011;4969;52.304;4.968;2022-12-18T06:55:51;15.57;;;13.23;;
9860;SDS011;4969;52.304;4.968;2022-12-18T06:58:18;17.87;;;14.30;;
9860;SDS011;4969;52.304;4.968;2022-12-18T07:00:44;17.20;;;13.97;;
9860;SDS011;4969;52.304;4.968;2022-12-18T07:03:11;17.63;;;14.17;;
9860;SDS011;4969;52.304;4.968;2022-12-18T07:05:39;15.13;;;12.97;;
9860;SDS011;4969;52.304;4.968;2022-12-18T07:08:06;14.93;;;13.37;;
9860;SDS011;4969;52.304;4.968;2022-12-18T07:13:06;14.47;;;12.63;;
9860;SDS011;4969;52.304;4.968;2022-12-18T07:15:32;16.13;;;14.43;;
9860;SDS011;4969;52.304;4.968;2022-12-18T07:17:59;15.00;;;13.23;;
9860;SDS011;4969;52.304;4.968;2022-12-18T07:20:26;15.30;;;13.07;;
9860;SDS011;4969;52.304;4.968;2022-12-18T07:22:52;14.80;;;11.40;;
9860;SDS011;4969;52.304;4.968;2022-12-18T07:25:19;13.53;;;12.13;;
9860;SDS011;4969;52.304;4.968;2022-12-18T07:27:47;14.07;;;12.40;;
9860;SDS011;4969;52.304;4.968;2022-12-18T07:30:13;15.50;;;12.23;;
9860;SDS011;4969;52.304;4.968;2022-12-18T07:32:40;14.07;;;12.13;;
9860;SDS011;4969;52.304;4.968;2022-12-18T07:35:07;17.83;;;11.70;;
9860;SDS011;4969;52.304;4.968;2022-12-18T07:37:33;13.50;;;12.13;;
9860;SDS011;4969;52.304;4.968;2022-12-18T07:40:00;14.47;;;12.90;;
9860;SDS011;4969;52.304;4.968;2022-12-18T07:42:27;14.40;;;11.23;;
9860;SDS011;4969;52.304;4.968;2022-12-18T07:45:01;12.80;;;11.50;;
9860;SDS011;4969;52.304;4.968;2022-12-18T07:47:28;14.33;;;12.23;;
9860;SDS011;4969;52.304;4.968;2022-12-18T07:49:58;14.37;;;11.93;;
9860;SDS011;4969;52.304;4.968;2022-12-18T07:52:25;14.57;;;12.90;;
9860;SDS011;4969;52.304;4.968;2022-12-18T07:54:51;12.87;;;11.47;;
9860;SDS011;4969;52.304;4.968;2022-12-18T07:57:18;15.40;;;12.27;;
9860;SDS011;4969;52.304;4.968;2022-12-18T07:59:44;14.60;;;11.77;;
9860;SDS011;4969;52.304;4.968;2022-12-18T08:02:12;15.67;;;12.23;;
9860;SDS011;4969;52.304;4.968;2022-12-18T08:04:39;14.07;;;12.40;;
9860;SDS011;4969;52.304;4.968;2022-12-18T08:07:06;12.60;;;11.27;;
9860;SDS011;4969;52.304;4.968;2022-12-18T08:09:32;15.23;;;11.33;;
9860;SDS011;4969;52.304;4.968;2022-12-18T08:11:59;13.93;;;12.40;;
9860;SDS011;4969;52.304;4.968;2022-12-18T08:14:25;12.87;;;11.53;;
9860;SDS011;4969;52.304;4.968;2022-12-18T08:16:52;13.20;;;11.80;;
9860;SDS011;4969;52.304;4.968;2022-12-18T08:19:20;13.00;;;11.60;;
9860;SDS011;4969;52.304;4.968;2022-12-18T08:21:46;15.17;;;11.40;;
9860;SDS011;4969;52.304;4.968;2022-12-18T08:24:13;12.40;;;11.20;;
9860;SDS011;4969;52.304;4.968;2022-12-18T08:26:40;12.57;;;11.30;;
9860;SDS011;4969;52.304;4.968;2022-12-18T08:29:06;12.93;;;11.63;;
9860;SDS011;4969;52.304;4.968;2022-12-18T08:31:33;12.10;;;10.80;;
9860;SDS011;4969;52.304;4.968;2022-12-18T08:33:59;11.57;;;10.23;;
9860;SDS011;4969;52.304;4.968;2022-12-18T08:36:28;12.20;;;11.00;;
9860;SDS011;4969;52.304;4.968;2022-12-18T08:38:54;12.93;;;11.53;;
9860;SDS011;4969;52.304;4.968;2022-12-18T08:41:21;11.83;;;10.63;;
9860;SDS011;4969;52.304;4.968;2022-12-18T08:43:48;13.30;;;10.77;;
9860;SDS011;4969;52.304;4.968;2022-12-18T08:46:34;12.57;;;11.40;;
9860;SDS011;4969;52.304;4.968;2022-12-18T08:49:01;11.67;;;10.53;;
9860;SDS011;4969;52.304;4.968;2022-12-18T08:51:30;12.00;;;10.43;;
9860;SDS011;4969;52.304;4.968;2022-12-18T08:53:56;12.20;;;10.60;;
9860;SDS011;4969;52.304;4.968;2022-12-18T08:56:23;11.30;;;10.20;;
9860;SDS011;4969;52.304;4.968;2022-12-18T08:58:51;11.50;;;10.30;;
9860;SDS011;4969;52.304;4.968;2022-12-18T09:01:18;10.97;;;9.43;;
9860;SDS011;4969;52.304;4.968;2022-12-18T09:03:45;11.30;;;10.20;;
9860;SDS011;4969;52.304;4.968;2022-12-18T09:06:13;12.63;;;11.07;;
9860;SDS011;4969;52.304;4.968;2022-12-18T09:08:42;11.50;;;10.40;;
9860;SDS011;4969;52.304;4.968;2022-12-18T09:11:11;12.30;;;11.10;;
9860;SDS011;4969;52.304;4.968;2022-12-18T09:13:40;11.07;;;9.33;;
9860;SDS011;4969;52.304;4.968;2022-12-18T09:16:06;11.07;;;9.97;;
9860;SDS011;4969;52.304;4.968;2022-12-18T09:18:33;11.90;;;10.70;;
9860;SDS011;4969;52.304;4.968;2022-12-18T09:21:00;10.90;;;9.50;;
9860;SDS011;4969;52.304;4.968;2022-12-18T09:23:34;12.43;;;10.93;;
9860;SDS011;4969;52.304;4.968;2022-12-18T09:26:02;11.23;;;10.03;;
9860;SDS011;4969;52.304;4.968;2022-12-18T09:28:29;11.17;;;10.00;;
9860;SDS011;4969;52.304;4.968;2022-12-18T09:30:55;10.90;;;9.50;;
9860;SDS011;4969;52.304;4.968;2022-12-18T09:33:22;10.63;;;9.50;;
9860;SDS011;4969;52.304;4.968;2022-12-18T09:35:48;11.43;;;9.30;;
9860;SDS011;4969;52.304;4.968;2022-12-18T09:38:16;11.33;;;10.10;;
9860;SDS011;4969;52.304;4.968;2022-12-18T09:40:45;12.67;;;10.03;;
9860;SDS011;4969;52.304;4.968;2022-12-18T09:43:16;11.53;;;10.37;;
9860;SDS011;4969;52.304;4.968;2022-12-18T09:45:46;12.40;;;11.00;;
9860;SDS011;4969;52.304;4.968;2022-12-18T09:48:15;12.50;;;11.20;;
9860;SDS011;4969;52.304;4.968;2022-12-18T09:50:47;15.37;;;13.07;;
9860;SDS011;4969;52.304;4.968;2022-12-18T09:53:17;19.20;;;14.40;;
9860;SDS011;4969;52.304;4.968;2022-12-18T09:55:47;18.50;;;15.63;;
9860;SDS011;4969;52.304;4.968;2022-12-18T09:58:17;16.77;;;14.97;;
9860;SDS011;4969;52.304;4.968;2022-12-18T10:00:50;19.70;;;17.40;;
9860;SDS011;4969;52.304;4.968;2022-12-18T10:03:18;17.80;;;15.83;;
9860;SDS011;4969;52.304;4.968;2022-12-18T10:05:46;16.50;;;14.70;;
9860;SDS011;4969;52.304;4.968;2022-12-18T10:08:24;17.10;;;15.30;;
9860;SDS011;4969;52.304;4.968;2022-12-18T10:11:01;16.70;;;14.93;;
9860;SDS011;4969;52.304;4.968;2022-12-18T10:13:50;16.80;;;14.63;;
9860;SDS011;4969;52.304;4.968;2022-12-18T10:16:22;14.47;;;12.97;;
9860;SDS011;4969;52.304;4.968;2022-12-18T10:18:57;12.73;;;11.40;;
9860;SDS011;4969;52.304;4.968;2022-12-18T10:21:45;14.57;;;12.43;;
9860;SDS011;4969;52.304;4.968;2022-12-18T10:24:22;14.43;;;12.63;;
9860;SDS011;4969;52.304;4.968;2022-12-18T10:26:52;12.97;;;11.57;;
9860;SDS011;4969;52.304;4.968;2022-12-18T10:29:28;16.80;;;14.33;;
9860;SDS011;4969;52.304;4.968;2022-12-18T10:31:54;15.57;;;12.90;;
9860;SDS011;4969;52.304;4.968;2022-12-18T10:34:21;13.00;;;11.77;;
9860;SDS011;4969;52.304;4.968;2022-12-18T10:36:47;16.47;;;13.17;;
9860;SDS011;4969;52.304;4.968;2022-12-18T10:39:15;13.57;;;11.87;;
9860;SDS011;4969;52.304;4.968;2022-12-18T10:41:43;14.97;;;13.37;;
9860;SDS011;4969;52.304;4.968;2022-12-18T10:44:11;13.77;;;12.33;;
9860;SDS011;4969;52.304;4.968;2022-12-18T10:46:43;13.37;;;11.97;;
9860;SDS011;4969;52.304;4.968;2022-12-18T10:49:24;15.23;;;13.20;;
9860;SDS011;4969;52.304;4.968;2022-12-18T10:52:03;12.87;;;11.47;;
9860;SDS011;4969;52.304;4.968;2022-12-18T10:54:40;17.40;;;13.63;;
9860;SDS011;4969;52.304;4.968;2022-12-18T10:57:16;15.90;;;12.87;;
9860;SDS011;4969;52.304;4.968;2022-12-18T10:59:51;15.60;;;13.87;;
9860;SDS011;4969;52.304;4.968;2022-12-18T11:02:28;13.80;;;12.37;;
9860;SDS011;4969;52.304;4.968;2022-12-18T11:05:00;12.57;;;11.27;;
9860;SDS011;4969;52.304;4.968;2022-12-18T11:07:40;12.80;;;11.33;;
9860;SDS011;4969;52.304;4.968;2022-12-18T11:10:15;13.23;;;11.90;;
9860;SDS011;4969;52.304;4.968;2022-12-18T11:12:43;13.33;;;11.97;;
9860;SDS011;4969;52.304;4.968;2022-12-18T11:15:13;12.70;;;11.40;;
9860;SDS011;4969;52.304;4.968;2022-12-18T11:17:44;12.63;;;11.33;;
9860;SDS011;4969;52.304;4.968;2022-12-18T11:20:19;13.47;;;12.07;;
9860;SDS011;4969;52.304;4.968;2022-12-18T11:22:54;12.63;;;11.43;;
9860;SDS011;4969;52.304;4.968;2022-12-18T11:25:23;13.83;;;12.33;;
9860;SDS011;4969;52.304;4.968;2022-12-18T11:27:51;12.83;;;10.73;;
9860;SDS011;4969;52.304;4.968;2022-12-18T11:30:23;14.27;;;12.57;;
9860;SDS011;4969;52.304;4.968;2022-12-18T11:32:53;12.60;;;11.30;;
9860;SDS011;4969;52.304;4.968;2022-12-18T11:35:27;13.00;;;11.33;;
9860;SDS011;4969;52.304;4.968;2022-12-18T11:38:03;12.83;;;11.30;;
9860;SDS011;4969;52.304;4.968;2022-12-18T11:40:33;13.53;;;12.13;;
9860;SDS011;4969;52.304;4.968;2022-12-18T11:43:04;12.47;;;10.70;;
9860;SDS011;4969;52.304;4.968;2022-12-18T11:45:38;12.87;;;11.47;;
9860;SDS011;4969;52.304;4.968;2022-12-18T11:48:12;12.50;;;11.20;;
9860;SDS011;4969;52.304;4.968;2022-12-18T11:50:46;12.67;;;11.40;;
9860;SDS011;4969;52.304;4.968;2022-12-18T11:53:16;13.73;;;11.27;;
9860;SDS011;4969;52.304;4.968;2022-12-18T11:55:47;11.77;;;10.60;;
9860;SDS011;4969;52.304;4.968;2022-12-18T11:58:23;12.83;;;11.53;;
9860;SDS011;4969;52.304;4.968;2022-12-18T12:01:10;12.73;;;11.40;;
9860;SDS011;4969;52.304;4.968;2022-12-18T12:03:49;10.70;;;9.70;;
9860;SDS011;4969;52.304;4.968;2022-12-18T12:06:28;12.37;;;11.07;;
9860;SDS011;4969;52.304;4.968;2022-12-18T12:09:02;12.30;;;11.13;;
9860;SDS011;4969;52.304;4.968;2022-12-18T12:11:40;12.87;;;11.57;;
9860;SDS011;4969;52.304;4.968;2022-12-18T12:14:22;12.20;;;10.93;;
9860;SDS011;4969;52.304;4.968;2022-12-18T12:16:57;11.20;;;10.10;;
9860;SDS011;4969;52.304;4.968;2022-12-18T12:19:32;12.67;;;11.37;;
9860;SDS011;4969;52.304;4.968;2022-12-18T12:22:06;12.10;;;10.80;;
9860;SDS011;4969;52.304;4.968;2022-12-18T12:24:43;12.10;;;10.87;;
9860;SDS011;4969;52.304;4.968;2022-12-18T12:27:18;12.13;;;10.93;;
9860;SDS011;4969;52.304;4.968;2022-12-18T12:29:57;11.57;;;10.47;;
9860;SDS011;4969;52.304;4.968;2022-12-18T12:32:38;11.97;;;10.87;;
9860;SDS011;4969;52.304;4.968;2022-12-18T12:35:20;12.80;;;11.30;;
9860;SDS011;4969;52.304;4.968;2022-12-18T12:37:58;11.90;;;10.70;;
9860;SDS011;4969;52.304;4.968;2022-12-18T12:40:33;23.97;;;11.60;;
9860;SDS011;4969;52.304;4.968;2022-12-18T12:43:03;11.73;;;10.60;;
9860;SDS011;4969;52.304;4.968;2022-12-18T12:45:41;14.97;;;11.30;;
9860;SDS011;4969;52.304;4.968;2022-12-18T12:48:16;11.77;;;10.67;;
9860;SDS011;4969;52.304;4.968;2022-12-18T12:50:47;12.73;;;11.37;;
9860;SDS011;4969;52.304;4.968;2022-12-18T12:53:19;12.70;;;11.40;;
9860;SDS011;4969;52.304;4.968;2022-12-18T12:55:51;11.63;;;10.53;;
9860;SDS011;4969;52.304;4.968;2022-12-18T12:58:21;12.63;;;11.13;;
9860;SDS011;4969;52.304;4.968;2022-12-18T13:00:53;12.83;;;11.57;;
9860;SDS011;4969;52.304;4.968;2022-12-18T13:03:31;13.00;;;11.20;;
9860;SDS011;4969;52.304;4.968;2022-12-18T13:06:09;12.80;;;11.40;;
9860;SDS011;4969;52.304;4.968;2022-12-18T13:08:51;16.23;;;11.67;;
9860;SDS011;4969;52.304;4.968;2022-12-18T13:11:28;11.93;;;10.73;;
9860;SDS011;4969;52.304;4.968;2022-12-18T13:14:20;12.23;;;11.03;;
9860;SDS011;4969;52.304;4.968;2022-12-18T13:16:49;12.63;;;11.33;;
9860;SDS011;4969;52.304;4.968;2022-12-18T13:19:21;12.43;;;11.23;;
9860;SDS011;4969;52.304;4.968;2022-12-18T13:21:54;12.37;;;11.17;;
9860;SDS011;4969;52.304;4.968;2022-12-18T13:24:23;13.13;;;11.80;;
9860;SDS011;4969;52.304;4.968;2022-12-18T13:26:52;11.83;;;10.63;;
9860;SDS011;4969;52.304;4.968;2022-12-18T13:32:21;11.23;;;10.03;;
9860;SDS011;4969;52.304;4.968;2022-12-18T13:34:48;11.50;;;10.40;;
9860;SDS011;4969;52.304;4.968;2022-12-18T13:37:51;11.83;;;10.63;;
9860;SDS011;4969;52.304;4.968;2022-12-18T13:43:29;14.07;;;10.70;;
9860;SDS011;4969;52.304;4.968;2022-12-18T13:46:06;12.33;;;9.80;;
9860;SDS011;4969;52.304;4.968;2022-12-18T13:48:49;11.93;;;10.67;;
9860;SDS011;4969;52.304;4.968;2022-12-18T13:51:18;12.17;;;10.87;;
9860;SDS011;4969;52.304;4.968;2022-12-18T13:53:48;12.23;;;10.97;;
9860;SDS011;4969;52.304;4.968;2022-12-18T13:56:16;11.17;;;10.07;;
9860;SDS011;4969;52.304;4.968;2022-12-18T13:58:44;11.40;;;10.27;;
9860;SDS011;4969;52.304;4.968;2022-12-18T14:01:21;11.47;;;10.33;;
9860;SDS011;4969;52.304;4.968;2022-12-18T14:03:49;11.70;;;10.50;;
9860;SDS011;4969;52.304;4.968;2022-12-18T14:06:15;11.80;;;10.07;;
9860;SDS011;4969;52.304;4.968;2022-12-18T14:08:42;11.83;;;10.63;;
9860;SDS011;4969;52.304;4.968;2022-12-18T14:11:18;11.93;;;10.73;;
9860;SDS011;4969;52.304;4.968;2022-12-18T14:13:46;11.67;;;10.57;;
9860;SDS011;4969;52.304;4.968;2022-12-18T14:16:14;11.50;;;10.33;;
9860;SDS011;4969;52.304;4.968;2022-12-18T14:18:43;11.50;;;10.40;;
9860;SDS011;4969;52.304;4.968;2022-12-18T14:21:17;11.30;;;10.20;;
9860;SDS011;4969;52.304;4.968;2022-12-18T14:23:46;11.00;;;9.90;;
9860;SDS011;4969;52.304;4.968;2022-12-18T14:26:22;11.73;;;10.53;;
9860;SDS011;4969;52.304;4.968;2022-12-18T14:28:52;11.00;;;9.90;;
9860;SDS011;4969;52.304;4.968;2022-12-18T14:31:21;12.50;;;11.30;;
9860;SDS011;4969;52.304;4.968;2022-12-18T14:33:48;11.77;;;10.57;;
9860;SDS011;4969;52.304;4.968;2022-12-18T14:36:16;12.77;;;11.47;;
9860;SDS011;4969;52.304;4.968;2022-12-18T14:38:47;12.30;;;11.00;;
9860;SDS011;4969;52.304;4.968;2022-12-18T14:41:15;13.40;;;12.00;;
9860;SDS011;4969;52.304;4.968;2022-12-18T14:43:45;12.37;;;11.17;;
9860;SDS011;4969;52.304;4.968;2022-12-18T14:46:26;12.73;;;11.43;;
9860;SDS011;4969;52.304;4.968;2022-12-18T14:48:55;13.07;;;11.63;;
9860;SDS011;4969;52.304;4.968;2022-12-18T14:51:23;12.43;;;11.07;;
9860;SDS011;4969;52.304;4.968;2022-12-18T14:53:54;12.90;;;11.57;;
9860;SDS011;4969;52.304;4.968;2022-12-18T14:56:23;12.67;;;11.47;;
9860;SDS011;4969;52.304;4.968;2022-12-18T14:58:54;12.27;;;11.03;;
9860;SDS011;4969;52.304;4.968;2022-12-18T15:01:24;12.90;;;11.50;;
9860;SDS011;4969;52.304;4.968;2022-12-18T15:03:52;13.90;;;11.77;;
9860;SDS011;4969;52.304;4.968;2022-12-18T15:06:25;12.13;;;11.00;;
9860;SDS011;4969;52.304;4.968;2022-12-18T15:08:55;12.40;;;11.20;;
9860;SDS011;4969;52.304;4.968;2022-12-18T15:11:29;14.00;;;12.17;;
9860;SDS011;4969;52.304;4.968;2022-12-18T15:16:50;12.53;;;11.33;;